Tuesday, September 02, 2014
23:49 UTC
  |  Log In   |  Register Free
Airport Search:

Jackson-Evers International Airport
(KJAN)

FAA data valid effective July 24, 2014 until September 18, 2014 (unless otherwise noted).

 
 
 
 
 
 
 
 
 
 
 
 
 
 

Current Aviation Weather for Jackson-Evers International Airport (KJAN)

The most recent METAR observation for KJAN was updated at: 2154 UTC
METAR Summary (Translated METAR)
KJAN
022154Z 05005KT 10SM OVC150 27/24 A2999 RMK AO2 RAE15 TSE15 SLP149 TS MOV NE P0001 T02720244
KHKS
(7.6 nm NW from KJAN)
022218Z 10008KT 7SM -TSRA FEW017 BKN022 OVC055 26/23 A3003 RMK AO2 PK WND 27026/2200 LTG DSNT ALQDS TSB08 P0030 T02560228
TAF Summary (Translated TAF)
KJAN
022157Z 0222/0318 VRB10G20KT 3SM TSRA SCT030 BKN050CB FM030000 15003KT P6SM SCT060 BKN150 FM031100 00000KT 5SM BR SCT250 FM031400 VRB03KT P6SM SCT250
KHKS
(7.6 nm NW from KJAN)
022110Z 0221/0318 VRB06KT P6SM VCTS SCT030 BKN050CB FM030100 15003KT P6SM SCT060 BKN150 FM031100 00000KT 5SM BR SCT250 FM031400 VRB03KT P6SM SCT250
  Airport Weather Conditions for KJAN

 Current Weather at JAN
74° F
Thunderstorm Heavy Rain Fog/Mist
North winds at 8.1 mph
JAN NOAA Radar

Pressure: 30.03 in
Humidity: 97%
Wind: North at 8.1 MPH (7 KT)
Dew Point: 73.0°F
Visibility: 2.50 mi


Airport Weather Forecast for KJAN

Translated METAR and TAF for KJAN
Translated METAR for KJAN (2343 UTC 02 September 2014)
found at http://aviationweather.gov/adds/metars/
 
METAR text: KJAN 022322Z VRB03KT 1SM +TSRA BR FEW016 BKN030CB OVC100 23/22 A3008 RMK AO2 SFC VIS 1 1/2 PRESRR FRQ LTGICCG ALQDS TS ALQDS MOV E P0011 T02280222
Conditions at: KJAN (JACKSON , MS, US) observed 2322 UTC 02 September 2014
Temperature: 22.8°C (73°F)
Dewpoint: 22.2°C (72°F) [RH = 96%]
Pressure (altimeter): 30.08 inches Hg (1018.7 mb)
Winds: variable direction winds at 3 MPH (3 knots; 1.6 m/s)
Visibility: 1.00 miles (1.61 km)
Ceiling: 3000 feet AGL
Clouds: few clouds at 1600 feet AGL
broken clouds at 3000 feet AGL
overcast cloud deck at 10000 feet AGL
Weather: +TSRA BR  (heavy rain associated with thunderstorm(s), mist)
Translated TAF for KJAN
Forecast for: KJAN (JACKSON , MS, US)
TAF Text: KJAN 022157Z 0222/0318 VRB10G20KT 3SM TSRA SCT030 BKN050CB
Forecast period: 2200 UTC 02 September 2014 to 0000 UTC 03 September 2014
Forecast type: FROM: standard forecast or significant change
Winds: variable direction winds at 12 MPH (10 knots; 5.2 m/s)
gusting to 23 MPH (20 knots; 10.4 m/s)
Visibility: 3 miles (5 km)
Ceiling: 5000 feet AGL
Clouds: scattered clouds at 3000 feet AGL
broken clouds at 5000 feet AGL
Weather: TSRA  (rain associated with thunderstorm(s))
TAF Text: FM030000 15003KT P6SM SCT060 BKN150
Forecast period: 0000 to 1100 UTC 03 September 2014
Forecast type: FROM: standard forecast or significant change
Winds: from the SSE (150 degrees) at 3 MPH (3 knots; 1.6 m/s)
Visibility: 6 or more miles (10+ km)
Ceiling: 15000 feet AGL
Clouds: scattered clouds at 6000 feet AGL
broken clouds at 15000 feet AGL
Weather: no significant weather forecast for this period
TAF Text: FM031100 00000KT 5SM BR SCT250
Forecast period: 1100 to 1400 UTC 03 September 2014
Forecast type: FROM: standard forecast or significant change
Winds: calm
Visibility: 5 miles (8 km)
Clouds: scattered clouds at 25000 feet AGL
Weather: BR  (mist)
TAF Text: FM031400 VRB03KT P6SM SCT250
Forecast period: 1400 to 1800 UTC 03 September 2014
Forecast type: FROM: standard forecast or significant change
Winds: variable direction winds at 3 MPH (3 knots; 1.6 m/s)
Visibility: 6 or more miles (10+ km)
Clouds: scattered clouds at 25000 feet AGL
Weather: no significant weather forecast for this period

Find All Airport Services Find A Hotel Find A Rental Car Find A Golf Course Find A Restaurant $100 Hamburger



FBO's on the Field
FBO Company Facility Photos Services Transportation Aviation Fuel Prices: Prices include tax
Catering Weather Repair Courtesy Rental Type 100LL JetA JetA+ MOGAS 8087
 
Atlantic Aviation

This FBO has not yet been rated
FS:Chevron
Last Updated: Sep-02
Login to update fuel prices
SS:
Contact Atlantic AviationMore FBO Information
 
Add another FBO Facility Photos Catering Weather Repair Courtesy Rental Type 100LL JetA JetA+ MOGAS 8087
Services Transportation Aviation Fuel Prices: Prices include tax


GlobalAir.com Airport Resource Center model-print
model-print
model-print
model-print